Terminal Aerodrome Forecast
Issued by NWS

Home | Current Version | Previous Version | Text Only | Print | Product List | Glossary On
Versions: 1 2 3 4 5 6 7 8 9 10 11 12 13 14
000
FTUS46 KSEW 252334
TAFHQM
TAF
KHQM 252334Z 2600/2624 25012KT P6SM OVC035
     FM260600 26007KT P6SM OVC020
     FM261900 26008KT P6SM OVC035=

USA.gov is the U.S. government's official web portal to all federal, state and local government web resources and services.